Terminal Aerodrome Forecast
Issued by NWS Buffalo, NY

Home | Current Version | Previous Version | Text Only | Print | Product List | Glossary On
Versions: 1 2 3 4 5 6 7 8 9 10 11 12 13 14 15 16 17 18 19 20 21 22 23 24
632
FTUS41 KBUF 291120
TAFART
TAF
KART 291120Z 2912/3012 21010KT P6SM -SHRA OVC090
     FM291400 16007KT P6SM VCSH OVC100
     FM291700 16008KT 6SM -SHRA OVC050
     FM300000 18005KT 5SM -SHRA VCTS OVC045CB
     FM300500 20006KT P6SM VCSH BKN045=

USA.gov is the U.S. government's official web portal to all federal, state and local government web resources and services.